Time;durP1;ratioP1;P1;durP2;ratioP2;P2;SDS_P1;SDS_P2;PMS_P1;PMS_P2;Temp;Humidity;BMP_temperature;BMP_pressure;BME280_temperature;BME280_humidity;BME280_pressure;Samples;Min_cycle;Max_cycle;Signal;HPM_P1;HPM_P2
2021/12/14 00:01:32;;;;;;;25.92;6.07;;;;;;;;;;5043879;28;20037;-72
2021/12/14 00:04:09;;;;;;;122.35;8.13;;;;;;;;;;5043582;28;20082;-71
2021/12/14 00:06:35;;;;;;;83.82;7.95;;;;;;;;;;5042533;28;20037;-71
2021/12/14 00:09:02;;;;;;;66.15;8.40;;;;;;;;;;5043723;28;20511;-70
2021/12/14 00:11:50;;;;;;;83.68;8.60;;;;;;;;;;5042751;28;20037;-70
2021/12/14 00:17:08;;;;;;;124.05;10.60;;;;;;;;;;5043000;28;20462;-69
2021/12/14 00:19:33;;;;;;;86.65;11.05;;;;;;;;;;5043134;28;20064;-72
2021/12/14 00:22:06;;;;;;;63.80;11.38;;;;;;;;;;5042699;28;20107;-72
2021/12/14 00:24:34;;;;;;;95.30;11.95;;;;;;;;;;5043017;28;20120;-73
2021/12/14 00:27:04;;;;;;;121.20;12.35;;;;;;;;;;5043321;28;20052;-69
2021/12/14 00:29:44;;;;;;;177.10;13.40;;;;;;;;;;5042101;28;20029;-69
2021/12/14 00:32:18;;;;;;;116.07;11.40;;;;;;;;;;5041401;28;20484;-70
2021/12/14 00:34:44;;;;;;;181.63;13.23;;;;;;;;;;5042864;28;20044;-72
2021/12/14 00:37:18;;;;;;;99.78;12.23;;;;;;;;;;5042856;28;20033;-71
2021/12/14 00:39:46;;;;;;;40.92;12.35;;;;;;;;;;5042254;28;20054;-72
2021/12/14 00:42:12;;;;;;;38.08;12.88;;;;;;;;;;5042276;28;20098;-71
2021/12/14 00:44:39;;;;;;;159.13;14.13;;;;;;;;;;5042836;28;20029;-71
2021/12/14 00:47:04;;;;;;;28.92;11.57;;;;;;;;;;5041167;28;20037;-69
2021/12/14 00:49:30;;;;;;;23.90;11.98;;;;;;;;;;5041636;28;20041;-70
2021/12/14 00:51:57;;;;;;;63.58;12.48;;;;;;;;;;5040409;28;20128;-70
2021/12/14 00:54:23;;;;;;;90.35;12.48;;;;;;;;;;5042468;28;20071;-72
2021/12/14 00:56:50;;;;;;;37.15;10.55;;;;;;;;;;5042532;28;20421;-69
2021/12/14 00:59:18;;;;;;;123.35;13.63;;;;;;;;;;5041282;28;20047;-70
2021/12/14 01:01:52;;;;;;;19.73;10.95;;;;;;;;;;5039703;28;20065;-69
2021/12/14 01:04:33;;;;;;;170.88;13.13;;;;;;;;;;5042296;28;20095;-70
2021/12/14 01:06:59;;;;;;;51.17;12.73;;;;;;;;;;5042759;28;20399;-69
2021/12/14 01:09:28;;;;;;;166.18;12.93;;;;;;;;;;5024072;28;20511;-70
2021/12/14 01:12:02;;;;;;;290.63;17.83;;;;;;;;;;5040545;28;20033;-69
2021/12/14 01:14:40;;;;;;;137.07;14.38;;;;;;;;;;5041025;28;20400;-69
2021/12/14 01:17:24;;;;;;;129.05;15.57;;;;;;;;;;5042130;28;20040;-70
2021/12/14 01:19:56;;;;;;;105.78;15.40;;;;;;;;;;5040761;28;20032;-68
2021/12/14 01:25:17;;;;;;;205.65;17.42;;;;;;;;;;5041221;28;20040;-68
2021/12/14 01:27:42;;;;;;;85.95;15.07;;;;;;;;;;5034318;28;20044;-69
2021/12/14 01:30:25;;;;;;;148.77;16.80;;;;;;;;;;5040258;28;20040;-75
2021/12/14 01:32:51;;;;;;;;;;;;;;;;;;5040685;28;20115;-68
2021/12/14 01:35:21;;;;;;;143.93;15.82;;;;;;;;;;5040429;28;20356;-72
2021/12/14 01:38:00;;;;;;;60.17;17.15;;;;;;;;;;5040591;28;20487;-70
2021/12/14 01:43:48;;;;;;;35.88;14.85;;;;;;;;;;5013586;28;20073;-74
2021/12/14 01:46:25;;;;;;;31.33;15.10;;;;;;;;;;5039262;28;20059;-72
2021/12/14 01:48:57;;;;;;;113.68;17.80;;;;;;;;;;5040152;28;20041;-71
2021/12/14 01:51:47;;;;;;;60.17;16.00;;;;;;;;;;5040863;28;20040;-72
2021/12/14 01:54:32;;;;;;;51.78;14.32;;;;;;;;;;5040032;28;20180;-69
2021/12/14 01:56:57;;;;;;;32.85;15.27;;;;;;;;;;5040990;28;20415;-71
2021/12/14 01:59:34;;;;;;;25.27;13.55;;;;;;;;;;5039682;28;20037;-71
2021/12/14 02:02:41;;;;;;;19.98;13.00;;;;;;;;;;5039948;28;20075;-71
2021/12/14 02:04:56;;;;;;;23.33;12.93;;;;;;;;;;5034950;28;20083;-72
2021/12/14 02:07:24;;;;;;;31.33;18.25;;;;;;;;;;5038840;28;20035;-68
2021/12/14 02:09:58;;;;;;;33.55;18.65;;;;;;;;;;5039740;28;20144;-70
2021/12/14 02:12:27;;;;;;;38.47;17.00;;;;;;;;;;5040678;28;20043;-69
2021/12/14 02:15:20;;;;;;;52.20;20.08;;;;;;;;;;5039642;28;20077;-70
2021/12/14 02:17:49;;;;;;;34.10;16.85;;;;;;;;;;5039431;28;20036;-72
2021/12/14 02:20:21;;;;;;;25.35;12.60;;;;;;;;;;5040307;28;20113;-70
2021/12/14 02:22:48;;;;;;;51.25;21.63;;;;;;;;;;5039672;28;20024;-69
2021/12/14 02:25:14;;;;;;;61.72;19.67;;;;;;;;;;5039566;28;20036;-69
2021/12/14 02:27:44;;;;;;;90.55;20.55;;;;;;;;;;5039373;28;20503;-71
2021/12/14 02:30:18;;;;;;;90.78;21.95;;;;;;;;;;5038466;28;20411;-72
2021/12/14 02:32:44;;;;;;;107.80;23.15;;;;;;;;;;5039454;28;20399;-69
2021/12/14 02:35:14;;;;;;;77.15;18.27;;;;;;;;;;5039124;28;20491;-69
2021/12/14 02:37:49;;;;;;;67.95;20.10;;;;;;;;;;5039197;28;20033;-69
2021/12/14 02:40:53;;;;;;;92.03;18.55;;;;;;;;;;5038772;28;20607;-70
2021/12/14 02:43:20;;;;;;;199.23;23.15;;;;;;;;;;5038838;28;20043;-71
2021/12/14 02:45:46;;;;;;;101.72;20.05;;;;;;;;;;5039139;28;20937;-68
2021/12/14 02:48:12;;;;;;;283.42;21.40;;;;;;;;;;5036531;28;20077;-69
2021/12/14 02:50:39;;;;;;;271.40;24.40;;;;;;;;;;5039204;28;20060;-71
2021/12/14 02:53:05;;;;;;;195.90;21.70;;;;;;;;;;5038100;28;20025;-69
2021/12/14 02:55:31;;;;;;;139.77;13.38;;;;;;;;;;5038937;28;20048;-69
2021/12/14 02:58:02;;;;;;;313.10;18.60;;;;;;;;;;5040827;28;20036;-71
2021/12/14 03:00:34;;;;;;;175.32;17.00;;;;;;;;;;5039777;28;20399;-70
2021/12/14 03:03:02;;;;;;;136.98;16.15;;;;;;;;;;5039380;28;20082;-69
2021/12/14 03:05:31;;;;;;;279.55;17.75;;;;;;;;;;5023040;28;20549;-69
2021/12/14 03:08:03;;;;;;;238.63;14.13;;;;;;;;;;5039092;28;20060;-69
2021/12/14 03:10:38;;;;;;;219.80;15.93;;;;;;;;;;5039072;28;20036;-69
2021/12/14 03:13:09;;;;;;;257.40;16.50;;;;;;;;;;5039092;28;20543;-69
2021/12/14 03:15:45;;;;;;;234.32;15.00;;;;;;;;;;5040349;28;20029;-71
2021/12/14 03:18:14;;;;;;;300.48;18.58;;;;;;;;;;5040249;28;20033;-71
2021/12/14 03:20:52;;;;;;;147.50;17.25;;;;;;;;;;5040282;28;20511;-69
2021/12/14 03:23:33;;;;;;;387.92;22.33;;;;;;;;;;5040430;28;20071;-69
2021/12/14 03:26:05;;;;;;;425.35;26.63;;;;;;;;;;5039521;28;20037;-69
2021/12/14 03:28:32;;;;;;;183.23;19.02;;;;;;;;;;5039963;28;20039;-71
2021/12/14 03:31:10;;;;;;;432.55;23.35;;;;;;;;;;5040138;28;20087;-69
2021/12/14 03:33:54;;;;;;;261.45;18.85;;;;;;;;;;5022235;28;20036;-69
2021/12/14 03:36:27;;;;;;;208.05;15.98;;;;;;;;;;5038227;28;20580;-71
2021/12/14 03:38:57;;;;;;;144.00;15.70;;;;;;;;;;5040784;28;20396;-68
2021/12/14 03:41:27;;;;;;;138.43;14.40;;;;;;;;;;5040300;28;20037;-70
2021/12/14 03:44:03;;;;;;;154.60;14.85;;;;;;;;;;5038971;28;20048;-70
2021/12/14 03:46:41;;;;;;;80.53;12.20;;;;;;;;;;5054248;28;20044;-69
2021/12/14 03:49:08;;;;;;;163.13;13.70;;;;;;;;;;5038585;28;20127;-69
2021/12/14 03:51:35;;;;;;;77.63;11.90;;;;;;;;;;5038587;28;20103;-71
2021/12/14 03:54:03;;;;;;;79.10;12.25;;;;;;;;;;5038700;28;20166;-68
2021/12/14 03:56:28;;;;;;;280.75;14.10;;;;;;;;;;5038265;28;20117;-69
2021/12/14 03:58:55;;;;;;;208.57;12.38;;;;;;;;;;5041123;28;20055;-70
2021/12/14 04:01:28;;;;;;;80.78;12.05;;;;;;;;;;5042198;28;20039;-70
2021/12/14 04:04:09;;;;;;;62.92;11.13;;;;;;;;;;5042352;28;20029;-71
2021/12/14 04:06:35;;;;;;;63.03;10.52;;;;;;;;;;5042104;28;20039;-69
2021/12/14 04:09:02;;;;;;;65.60;11.18;;;;;;;;;;5043061;28;20033;-71
2021/12/14 04:11:28;;;;;;;55.35;9.57;;;;;;;;;;5041991;28;20061;-71
2021/12/14 04:13:55;;;;;;;203.07;12.55;;;;;;;;;;5041972;28;20029;-71
2021/12/14 04:16:40;;;;;;;34.53;9.05;;;;;;;;;;5041992;28;20060;-71
2021/12/14 04:19:10;;;;;;;226.30;11.65;;;;;;;;;;5041628;28;20164;-69
2021/12/14 04:21:38;;;;;;;48.63;9.05;;;;;;;;;;5041951;28;20471;-69
2021/12/14 04:24:09;;;;;;;168.48;10.30;;;;;;;;;;5041623;28;20036;-68
2021/12/14 04:26:35;;;;;;;151.32;10.07;;;;;;;;;;5041861;28;20039;-71
2021/12/14 04:29:04;;;;;;;43.17;9.10;;;;;;;;;;5042138;28;20041;-69
2021/12/14 04:31:36;;;;;;;21.80;8.07;;;;;;;;;;5040982;28;20028;-69
2021/12/14 04:34:03;;;;;;;102.60;9.25;;;;;;;;;;5041792;28;20037;-71
2021/12/14 04:36:30;;;;;;;28.38;8.90;;;;;;;;;;5049864;28;20042;-69
2021/12/14 04:39:11;;;;;;;105.13;9.88;;;;;;;;;;5041755;28;20029;-69
2021/12/14 04:52:52;;;;;;;36.38;7.70;;;;;;;;;;5057302;28;20127;-70
2021/12/14 04:55:18;;;;;;;35.00;8.10;;;;;;;;;;5039696;28;20522;-70
2021/12/14 04:57:47;;;;;;;118.00;9.45;;;;;;;;;;5041523;28;20037;-68
2021/12/14 05:00:38;;;;;;;48.95;8.40;;;;;;;;;;5041142;28;20037;-71
2021/12/14 05:03:22;;;;;;;184.98;11.82;;;;;;;;;;5040171;28;20885;-69
2021/12/14 05:05:50;;;;;;;19.80;9.77;;;;;;;;;;5041107;28;20040;-70
2021/12/14 05:11:10;;;;;;;23.33;9.15;;;;;;;;;;5041043;28;20484;-71
2021/12/14 05:13:41;;;;;;;39.80;9.40;;;;;;;;;;5024657;28;20037;-72
2021/12/14 05:16:26;;;;;;;33.97;9.63;;;;;;;;;;5039760;28;20043;-71
2021/12/14 05:18:58;;;;;;;32.38;10.00;;;;;;;;;;5041142;28;20033;-71
2021/12/14 05:21:29;;;;;;;52.58;9.98;;;;;;;;;;5040887;28;20041;-71
2021/12/14 05:23:59;;;;;;;78.75;10.32;;;;;;;;;;5040509;28;20037;-73
2021/12/14 05:26:24;;;;;;;26.55;8.65;;;;;;;;;;5039439;28;20037;-71
2021/12/14 05:28:52;;;;;;;43.28;10.18;;;;;;;;;;5040718;28;20118;-69
2021/12/14 05:31:21;;;;;;;255.45;13.02;;;;;;;;;;5040235;28;20387;-69
2021/12/14 05:33:49;;;;;;;86.40;9.98;;;;;;;;;;5039631;28;20100;-70
2021/12/14 05:36:31;;;;;;;167.30;9.32;;;;;;;;;;5024847;28;20044;-69
2021/12/14 05:39:04;;;;;;;65.30;9.00;;;;;;;;;;5040247;28;20075;-72
2021/12/14 05:44:44;;;;;;;95.30;7.90;;;;;;;;;;5039300;28;20082;-69
2021/12/14 05:47:17;;;;;;;145.68;9.30;;;;;;;;;;5039028;28;20120;-69
2021/12/14 05:50:00;;;;;;;62.47;8.70;;;;;;;;;;5040940;28;20764;-68
2021/12/14 05:52:28;;;;;;;318.80;12.95;;;;;;;;;;5040203;28;20040;-68
2021/12/14 05:55:00;;;;;;;91.13;8.88;;;;;;;;;;5039958;28;20210;-68
2021/12/14 05:57:26;;;;;;;147.38;10.05;;;;;;;;;;5040176;28;20666;-68
2021/12/14 05:59:54;;;;;;;76.28;8.43;;;;;;;;;;5039231;28;20033;-68
2021/12/14 06:02:22;;;;;;;73.40;7.65;;;;;;;;;;5038453;28;20688;-72
2021/12/14 06:04:51;;;;;;;125.22;9.13;;;;;;;;;;5039178;28;20032;-69
2021/12/14 06:07:18;;;;;;;58.08;7.50;;;;;;;;;;5056082;28;20395;-70
2021/12/14 06:09:48;;;;;;;38.13;7.03;;;;;;;;;;5038608;28;20499;-71
2021/12/14 06:12:31;;;;;;;99.88;8.10;;;;;;;;;;5039194;28;20037;-71
2021/12/14 06:14:59;;;;;;;85.10;7.57;;;;;;;;;;5039798;28;20064;-71
2021/12/14 06:17:29;;;;;;;155.07;9.07;;;;;;;;;;5039266;28;20033;-71
2021/12/14 06:20:10;;;;;;;227.10;10.90;;;;;;;;;;5037662;28;21254;-70
2021/12/14 06:22:36;;;;;;;177.73;9.82;;;;;;;;;;5054211;28;20047;-70
2021/12/14 06:25:16;;;;;;;72.40;8.13;;;;;;;;;;5038108;28;20040;-70
2021/12/14 06:27:44;;;;;;;90.72;8.15;;;;;;;;;;5039340;28;20037;-70
2021/12/14 06:30:25;;;;;;;99.50;7.53;;;;;;;;;;5037877;28;20039;-72
2021/12/14 06:33:04;;;;;;;184.00;9.60;;;;;;;;;;5037348;28;20025;-70
2021/12/14 06:35:36;;;;;;;15.88;6.80;;;;;;;;;;5039680;28;20037;-72
2021/12/14 06:38:25;;;;;;;48.85;7.38;;;;;;;;;;5039675;28;20258;-73
2021/12/14 06:40:59;;;;;;;97.15;8.77;;;;;;;;;;5039558;28;20202;-72
2021/12/14 06:43:42;;;;;;;173.55;10.02;;;;;;;;;;5022604;28;20033;-70
2021/12/14 06:48:54;;;;;;;158.80;9.18;;;;;;;;;;4899609;29;20098;-70
2021/12/14 06:51:23;;;;;;;76.75;7.60;;;;;;;;;;4901242;28;20499;-72
2021/12/14 06:54:04;;;;;;;108.72;8.82;;;;;;;;;;4901958;28;20090;-71
2021/12/14 06:56:51;;;;;;;190.13;9.60;;;;;;;;;;4901768;28;20190;-70
2021/12/14 06:59:28;;;;;;;77.60;8.60;;;;;;;;;;4901434;28;20043;-70
2021/12/14 07:02:08;;;;;;;131.18;8.55;;;;;;;;;;4903652;28;20040;-70
2021/12/14 07:04:48;;;;;;;205.38;9.50;;;;;;;;;;4902083;28;20040;-70
2021/12/14 07:07:18;;;;;;;114.32;7.78;;;;;;;;;;4901518;29;20140;-69
2021/12/14 07:09:50;;;;;;;116.10;9.48;;;;;;;;;;4900933;29;20036;-69
2021/12/14 07:12:28;;;;;;;145.88;9.43;;;;;;;;;;4901899;29;20505;-69
2021/12/14 07:14:53;;;;;;;291.85;11.23;;;;;;;;;;4902354;29;20040;-70
2021/12/14 07:17:29;;;;;;;322.38;11.55;;;;;;;;;;4901914;28;20059;-69
2021/12/14 07:19:58;;;;;;;229.27;9.82;;;;;;;;;;4902225;29;20051;-71
2021/12/14 07:22:30;;;;;;;217.48;10.70;;;;;;;;;;4902002;29;20449;-70
2021/12/14 07:25:19;;;;;;;272.20;11.60;;;;;;;;;;4901871;29;20127;-70
2021/12/14 07:27:46;;;;;;;82.05;7.60;;;;;;;;;;4902383;28;20071;-70
2021/12/14 07:30:32;;;;;;;154.30;10.07;;;;;;;;;;4901904;29;20044;-73
2021/12/14 07:33:05;;;;;;;67.82;9.60;;;;;;;;;;4903947;29;20494;-69
2021/12/14 07:35:35;;;;;;;76.70;9.77;;;;;;;;;;4905530;29;20067;-69
2021/12/14 07:38:16;;;;;;;35.05;7.43;;;;;;;;;;4906103;28;20055;-69
2021/12/14 07:40:45;;;;;;;132.70;9.93;;;;;;;;;;4905442;29;20050;-68
2021/12/14 07:43:29;;;;;;;150.15;9.48;;;;;;;;;;4905007;29;20095;-69
2021/12/14 07:45:56;;;;;;;114.93;8.23;;;;;;;;;;4904459;29;20044;-68
2021/12/14 07:48:38;;;;;;;164.30;7.82;;;;;;;;;;4907420;28;20048;-67
2021/12/14 07:51:04;;;;;;;161.50;9.43;;;;;;;;;;4910800;29;20055;-68
2021/12/14 07:53:40;;;;;;;55.30;6.50;;;;;;;;;;4910462;29;20032;-68
2021/12/14 07:56:07;;;;;;;29.67;5.78;;;;;;;;;;4913760;29;20067;-68
2021/12/14 07:58:41;;;;;;;33.72;5.78;;;;;;;;;;4909536;29;20048;-73
2021/12/14 08:01:07;;;;;;;133.82;6.57;;;;;;;;;;4905800;28;20510;-70
2021/12/14 08:03:35;;;;;;;66.95;5.68;;;;;;;;;;4904837;29;20023;-68
2021/12/14 08:06:04;;;;;;;30.40;4.75;;;;;;;;;;4905818;29;20040;-69
2021/12/14 08:08:40;;;;;;;32.15;5.22;;;;;;;;;;4905135;29;20973;-69
2021/12/14 08:14:22;;;;;;;14.10;4.63;;;;;;;;;;4943167;29;20090;-69
2021/12/14 08:16:55;;;;;;;15.23;5.13;;;;;;;;;;4943270;29;20063;-69
2021/12/14 08:19:30;;;;;;;20.15;4.88;;;;;;;;;;4922100;29;20060;-68
2021/12/14 08:21:56;;;;;;;31.73;5.75;;;;;;;;;;4904821;28;20040;-69
2021/12/14 08:24:22;;;;;;;26.00;6.13;;;;;;;;;;4904332;29;20063;-69
2021/12/14 08:26:52;;;;;;;12.30;6.75;;;;;;;;;;4904805;28;20064;-69
2021/12/14 08:29:29;;;;;;;9.57;6.45;;;;;;;;;;4904462;29;20059;-70
2021/12/14 08:31:56;;;;;;;33.70;6.20;;;;;;;;;;4905179;28;20122;-70
2021/12/14 08:34:32;;;;;;;23.65;6.32;;;;;;;;;;4904007;28;20036;-69
2021/12/14 08:37:16;;;;;;;11.15;7.00;;;;;;;;;;4903231;29;20044;-69
2021/12/14 08:39:59;;;;;;;19.55;7.45;;;;;;;;;;4904638;29;20162;-70
2021/12/14 08:42:39;;;;;;;18.38;7.28;;;;;;;;;;4902758;29;20135;-73
2021/12/14 08:45:26;;;;;;;8.98;7.32;;;;;;;;;;4903995;28;20044;-70
2021/12/14 08:47:55;;;;;;;47.97;7.30;;;;;;;;;;4904233;29;20101;-71
2021/12/14 08:50:20;;;;;;;52.10;7.40;;;;;;;;;;4904808;29;20491;-71
2021/12/14 08:52:46;;;;;;;130.40;9.10;;;;;;;;;;4904008;29;20074;-70
2021/12/14 08:55:18;;;;;;;24.02;6.60;;;;;;;;;;4904520;28;20415;-71
2021/12/14 08:57:44;;;;;;;35.50;6.93;;;;;;;;;;4903542;29;20083;-73
2021/12/14 09:00:16;;;;;;;32.92;6.13;;;;;;;;;;4904186;29;20498;-71
2021/12/14 09:02:42;;;;;;;31.05;6.68;;;;;;;;;;4903576;29;20036;-71
2021/12/14 09:05:14;;;;;;;5.75;5.15;;;;;;;;;;4903690;28;20048;-71
2021/12/14 09:07:40;;;;;;;6.05;4.32;;;;;;;;;;4903930;29;20090;-71
2021/12/14 09:10:11;;;;;;;4.35;3.70;;;;;;;;;;4904579;29;20035;-71
2021/12/14 09:12:40;;;;;;;4.00;3.60;;;;;;;;;;4903374;29;20047;-71
2021/12/14 09:15:10;;;;;;;3.65;3.35;;;;;;;;;;4903606;29;20383;-70
2021/12/14 09:17:36;;;;;;;3.60;3.28;;;;;;;;;;4903362;28;20036;-70
2021/12/14 09:20:20;;;;;;;4.38;3.45;;;;;;;;;;4903804;29;20051;-70
2021/12/14 09:22:50;;;;;;;4.85;4.18;;;;;;;;;;4903224;29;20509;-70
2021/12/14 09:25:21;;;;;;;5.65;4.38;;;;;;;;;;4904523;28;20036;-72
2021/12/14 09:27:47;;;;;;;6.85;4.95;;;;;;;;;;4904868;28;20106;-71
2021/12/14 09:30:16;;;;;;;9.02;4.47;;;;;;;;;;4904660;28;20531;-73
2021/12/14 09:32:42;;;;;;;5.88;4.38;;;;;;;;;;4903234;29;20032;-73
2021/12/14 09:35:16;;;;;;;6.05;4.97;;;;;;;;;;4903643;29;20055;-71
2021/12/14 09:37:42;;;;;;;5.43;4.38;;;;;;;;;;4901077;28;20047;-71
2021/12/14 09:40:12;;;;;;;6.40;4.65;;;;;;;;;;4905403;28;20040;-70
2021/12/14 09:42:39;;;;;;;5.28;4.50;;;;;;;;;;4899553;28;20047;-71
2021/12/14 09:45:18;;;;;;;7.00;4.75;;;;;;;;;;4900531;29;20095;-71
2021/12/14 09:48:21;;;;;;;5.30;4.38;;;;;;;;;;4903712;29;20309;-71
2021/12/14 09:50:48;;;;;;;5.15;4.47;;;;;;;;;;4902792;28;20495;-70
2021/12/14 09:53:17;;;;;;;6.18;4.20;;;;;;;;;;4901293;29;20044;-70
2021/12/14 09:55:46;;;;;;;6.70;4.88;;;;;;;;;;4901759;29;20059;-69
2021/12/14 09:58:17;;;;;;;6.63;5.47;;;;;;;;;;4903169;29;20047;-71
2021/12/14 10:00:51;;;;;;;6.30;5.05;;;;;;;;;;4903552;28;20067;-70
2021/12/14 10:03:17;;;;;;;6.05;5.00;;;;;;;;;;4902921;29;20402;-71
2021/12/14 10:05:54;;;;;;;7.32;5.65;;;;;;;;;;4903581;29;20048;-72
2021/12/14 10:08:25;;;;;;;6.50;5.55;;;;;;;;;;4903520;29;20058;-72
2021/12/14 10:11:08;;;;;;;6.95;4.78;;;;;;;;;;4903345;29;20042;-73
2021/12/14 10:13:36;;;;;;;5.30;4.80;;;;;;;;;;4903138;28;20039;-71
2021/12/14 10:16:04;;;;;;;4.95;3.92;;;;;;;;;;4901845;29;20043;-72
2021/12/14 10:18:42;;;;;;;4.20;3.65;;;;;;;;;;4902423;28;20055;-71
2021/12/14 10:21:20;;;;;;;4.20;3.50;;;;;;;;;;4902761;28;20126;-70
2021/12/14 10:23:47;;;;;;;2.45;2.25;;;;;;;;;;4903567;28;20698;-71
2021/12/14 10:26:15;;;;;;;2.40;2.20;;;;;;;;;;4904892;28;20048;-72
2021/12/14 10:28:46;;;;;;;2.38;2.17;;;;;;;;;;4902898;29;20553;-70
2021/12/14 10:31:18;;;;;;;2.40;2.20;;;;;;;;;;4902782;29;20598;-71
2021/12/14 10:33:44;;;;;;;2.47;2.28;;;;;;;;;;4902836;28;20414;-70
2021/12/14 10:36:31;;;;;;;3.70;3.33;;;;;;;;;;4902708;29;20062;-72
2021/12/14 10:44:15;;;;;;;4.28;3.88;;;;;;;;;;4903132;28;20063;-71
2021/12/14 10:46:46;;;;;;;4.15;3.85;;;;;;;;;;4902416;29;20090;-70
2021/12/14 10:49:14;;;;;;;2.90;2.70;;;;;;;;;;4902895;29;20055;-70
2021/12/14 10:51:49;;;;;;;2.50;2.30;;;;;;;;;;4902211;29;20059;-73
2021/12/14 10:54:16;;;;;;;2.33;2.00;;;;;;;;;;4901456;29;20082;-71
2021/12/14 10:57:06;;;;;;;1.92;1.83;;;;;;;;;;4903260;28;20102;-70
2021/12/14 10:59:37;;;;;;;1.70;1.60;;;;;;;;;;4902721;29;20458;-69
2021/12/14 11:02:03;;;;;;;1.70;1.60;;;;;;;;;;4902754;29;20056;-71
2021/12/14 11:04:38;;;;;;;1.50;1.40;;;;;;;;;;4902146;29;20047;-70
2021/12/14 11:07:08;;;;;;;2.03;1.85;;;;;;;;;;4903724;28;20059;-69
2021/12/14 11:12:06;;;;;;;1.38;1.27;;;;;;;;;;4906248;29;20044;-71
2021/12/14 11:14:37;;;;;;;3.05;1.20;;;;;;;;;;4904240;29;20093;-72
2021/12/14 11:19:52;;;;;;;3.70;1.52;;;;;;;;;;4905773;28;20102;-71
2021/12/14 11:22:22;;;;;;;2.25;1.30;;;;;;;;;;4905646;29;20046;-69
2021/12/14 11:24:53;;;;;;;3.22;2.08;;;;;;;;;;4905398;29;20040;-71
2021/12/14 11:27:24;;;;;;;2.03;1.83;;;;;;;;;;4906101;29;20114;-72
2021/12/14 11:30:05;;;;;;;3.13;1.90;;;;;;;;;;4905596;28;20064;-71
2021/12/14 11:32:31;;;;;;;2.25;2.10;;;;;;;;;;4905185;29;20643;-71
2021/12/14 11:34:56;;;;;;;2.30;2.10;;;;;;;;;;4905101;29;20055;-70
2021/12/14 11:37:33;;;;;;;7.28;2.60;;;;;;;;;;4906184;28;20036;-69
2021/12/14 11:39:59;;;;;;;2.65;2.17;;;;;;;;;;4904617;28;20055;-69
2021/12/14 11:42:27;;;;;;;3.25;2.40;;;;;;;;;;4905178;29;21109;-71
2021/12/14 11:45:04;;;;;;;2.80;2.60;;;;;;;;;;4905167;29;20099;-70
2021/12/14 11:47:42;;;;;;;3.33;2.80;;;;;;;;;;4905231;29;20047;-70
2021/12/14 11:50:22;;;;;;;2.90;2.67;;;;;;;;;;4905369;29;20062;-70
2021/12/14 11:53:00;;;;;;;3.55;3.22;;;;;;;;;;4904485;29;20024;-69
2021/12/14 11:55:34;;;;;;;4.00;3.10;;;;;;;;;;4905143;29;20050;-70
2021/12/14 11:58:05;;;;;;;4.03;3.70;;;;;;;;;;4904637;29;20032;-69
2021/12/14 12:00:32;;;;;;;3.25;2.92;;;;;;;;;;4904950;29;20047;-69
2021/12/14 12:03:17;;;;;;;3.35;2.95;;;;;;;;;;4905776;28;20565;-72
2021/12/14 12:06:01;;;;;;;3.83;3.25;;;;;;;;;;4904920;29;20106;-69
2021/12/14 12:11:13;;;;;;;4.97;3.47;;;;;;;;;;4905068;28;20092;-68
2021/12/14 12:13:40;;;;;;;4.53;3.72;;;;;;;;;;4905694;28;20045;-70
2021/12/14 12:16:19;;;;;;;5.18;4.07;;;;;;;;;;4905506;29;20503;-69
2021/12/14 12:19:13;;;;;;;5.38;4.50;;;;;;;;;;4903179;28;20399;-69
2021/12/14 12:21:39;;;;;;;6.57;4.10;;;;;;;;;;4904619;29;20118;-69
2021/12/14 12:24:05;;;;;;;5.70;3.95;;;;;;;;;;4905681;28;20511;-71
2021/12/14 12:26:33;;;;;;;5.93;4.28;;;;;;;;;;4904520;29;20040;-68
2021/12/14 12:29:03;;;;;;;5.95;4.30;;;;;;;;;;4904495;29;20419;-70
2021/12/14 12:31:35;;;;;;;7.18;5.03;;;;;;;;;;4903401;29;20040;-70
2021/12/14 12:34:02;;;;;;;4.75;4.13;;;;;;;;;;4903742;29;20037;-70
2021/12/14 12:36:41;;;;;;;6.35;4.88;;;;;;;;;;4904061;28;20111;-69
2021/12/14 12:39:06;;;;;;;6.95;5.05;;;;;;;;;;4904633;29;20056;-69
2021/12/14 12:41:38;;;;;;;5.15;4.40;;;;;;;;;;4904245;29;20047;-70
2021/12/14 12:44:21;;;;;;;6.45;4.88;;;;;;;;;;4907466;28;20048;-70
2021/12/14 12:47:04;;;;;;;8.07;4.45;;;;;;;;;;4904537;28;20044;-70
2021/12/14 12:49:37;;;;;;;7.63;4.68;;;;;;;;;;4904086;29;20115;-69
2021/12/14 12:52:13;;;;;;;4.90;4.40;;;;;;;;;;4904361;29;20036;-69
2021/12/14 12:55:05;;;;;;;5.95;4.80;;;;;;;;;;4904603;28;20855;-70
2021/12/14 12:57:57;;;;;;;9.40;5.95;;;;;;;;;;4908090;28;20479;-70
2021/12/14 13:04:04;;;;;;;5.47;4.20;;;;;;;;;;4903124;29;20098;-70
2021/12/14 13:06:29;;;;;;;5.65;4.50;;;;;;;;;;4903473;29;20055;-71
2021/12/14 13:08:58;;;;;;;5.57;4.43;;;;;;;;;;4903006;28;20068;-70
2021/12/14 13:11:35;;;;;;;6.47;4.70;;;;;;;;;;4903254;29;20039;-70
2021/12/14 13:14:05;;;;;;;8.20;4.97;;;;;;;;;;4903044;29;20040;-70
2021/12/14 13:16:39;;;;;;;5.45;4.70;;;;;;;;;;4902830;29;20426;-71
2021/12/14 13:19:10;;;;;;;7.25;5.03;;;;;;;;;;4903501;28;20123;-71
2021/12/14 13:21:38;;;;;;;7.22;5.40;;;;;;;;;;4901924;29;20498;-71
2021/12/14 13:24:11;;;;;;;7.82;5.13;;;;;;;;;;4904057;28;20044;-71
2021/12/14 13:26:38;;;;;;;9.90;5.57;;;;;;;;;;4901311;28;20562;-71
2021/12/14 13:29:12;;;;;;;7.78;5.38;;;;;;;;;;4901313;28;20040;-71
2021/12/14 13:31:45;;;;;;;14.15;5.15;;;;;;;;;;4898796;29;20122;-71
2021/12/14 13:34:18;;;;;;;7.50;5.65;;;;;;;;;;4901120;29;20480;-71
2021/12/14 13:36:44;;;;;;;8.25;5.90;;;;;;;;;;4900741;29;20048;-71
2021/12/14 13:39:11;;;;;;;7.50;5.90;;;;;;;;;;4900939;29;20054;-71
2021/12/14 13:41:58;;;;;;;10.10;5.50;;;;;;;;;;4901172;28;20024;-71
2021/12/14 13:44:31;;;;;;;7.90;5.97;;;;;;;;;;4903483;28;20119;-71
2021/12/14 13:46:59;;;;;;;6.97;5.60;;;;;;;;;;4902286;28;20043;-70
2021/12/14 13:49:25;;;;;;;8.77;5.90;;;;;;;;;;4905863;28;20038;-72
2021/12/14 13:51:51;;;;;;;6.88;5.60;;;;;;;;;;4903664;28;20040;-71
2021/12/14 13:54:17;;;;;;;9.38;5.70;;;;;;;;;;4903171;29;20032;-71
2021/12/14 13:56:45;;;;;;;8.57;5.82;;;;;;;;;;4903226;29;21038;-71
2021/12/14 13:59:12;;;;;;;10.35;5.57;;;;;;;;;;4903574;29;20036;-72
2021/12/14 14:01:46;;;;;;;6.57;5.82;;;;;;;;;;4897100;29;20060;-73
2021/12/14 14:04:21;;;;;;;6.53;5.22;;;;;;;;;;4904265;28;20036;-68
2021/12/14 14:06:47;;;;;;;9.95;5.63;;;;;;;;;;4902690;29;20131;-72
2021/12/14 14:09:23;;;;;;;8.98;5.57;;;;;;;;;;4902465;29;20040;-71
2021/12/14 14:11:51;;;;;;;7.43;5.60;;;;;;;;;;4902496;29;20040;-71
2021/12/14 14:14:16;;;;;;;7.80;5.82;;;;;;;;;;4902645;28;20047;-71
2021/12/14 14:16:52;;;;;;;7.00;6.00;;;;;;;;;;4902203;29;20036;-71
2021/12/14 14:19:23;;;;;;;6.80;5.80;;;;;;;;;;4903245;29;21123;-70
2021/12/14 14:21:55;;;;;;;10.82;6.43;;;;;;;;;;4902703;29;20082;-71
2021/12/14 14:24:30;;;;;;;6.75;5.50;;;;;;;;;;4902844;28;20063;-70
2021/12/14 14:26:58;;;;;;;7.72;5.85;;;;;;;;;;4902539;29;20143;-73
2021/12/14 14:29:25;;;;;;;7.85;5.55;;;;;;;;;;4903047;29;20040;-70
2021/12/14 14:31:56;;;;;;;7.88;5.85;;;;;;;;;;4903213;28;20028;-71
2021/12/14 14:34:34;;;;;;;6.38;5.05;;;;;;;;;;4901991;28;20047;-70
2021/12/14 14:37:33;;;;;;;7.95;5.70;;;;;;;;;;4902671;28;20059;-70
2021/12/14 14:40:07;;;;;;;7.30;5.50;;;;;;;;;;4902261;29;20039;-72
2021/12/14 14:42:35;;;;;;;12.07;5.63;;;;;;;;;;4902173;29;20071;-72
2021/12/14 14:45:12;;;;;;;10.20;5.93;;;;;;;;;;4901891;29;20134;-72
2021/12/14 14:47:40;;;;;;;6.90;5.68;;;;;;;;;;4902507;28;20040;-71
2021/12/14 14:50:06;;;;;;;16.20;4.85;;;;;;;;;;4901449;29;20036;-71
2021/12/14 14:52:38;;;;;;;5.93;5.07;;;;;;;;;;4903058;29;20039;-70
2021/12/14 14:55:32;;;;;;;9.93;6.43;;;;;;;;;;4902370;29;20391;-71
2021/12/14 14:58:11;;;;;;;7.07;5.35;;;;;;;;;;4904178;28;20031;-70
2021/12/14 15:01:13;;;;;;;5.85;5.03;;;;;;;;;;4901979;29;20040;-70
2021/12/14 15:03:50;;;;;;;9.73;5.77;;;;;;;;;;4901965;29;20040;-71
2021/12/14 15:06:33;;;;;;;8.75;5.90;;;;;;;;;;4903141;29;20375;-70
2021/12/14 15:09:13;;;;;;;7.85;6.22;;;;;;;;;;4905383;28;20052;-71
2021/12/14 15:11:44;;;;;;;8.18;6.43;;;;;;;;;;4902225;28;20040;-70
2021/12/14 15:14:13;;;;;;;8.98;7.15;;;;;;;;;;4902204;29;20036;-72
2021/12/14 15:16:44;;;;;;;12.55;7.90;;;;;;;;;;4902754;29;20163;-72
2021/12/14 15:19:15;;;;;;;10.68;7.10;;;;;;;;;;4902461;28;20127;-75
2021/12/14 15:22:01;;;;;;;10.80;6.70;;;;;;;;;;4902918;29;20039;-72
2021/12/14 15:24:42;;;;;;;13.88;7.85;;;;;;;;;;4901708;29;20037;-70
2021/12/14 15:27:10;;;;;;;28.27;13.00;;;;;;;;;;4902290;29;20102;-72
2021/12/14 15:29:46;;;;;;;32.42;15.77;;;;;;;;;;4901977;29;20060;-71
2021/12/14 15:32:19;;;;;;;20.33;9.85;;;;;;;;;;4902667;28;20040;-73
2021/12/14 15:34:58;;;;;;;21.60;10.40;;;;;;;;;;4902381;29;20703;-73
2021/12/14 15:37:48;;;;;;;13.80;8.63;;;;;;;;;;4900873;29;20059;-72
2021/12/14 15:40:19;;;;;;;12.13;8.48;;;;;;;;;;4901650;29;20099;-70
2021/12/14 15:42:55;;;;;;;10.50;7.47;;;;;;;;;;4901789;28;20043;-70
2021/12/14 15:45:48;;;;;;;6.57;5.38;;;;;;;;;;4902306;29;20044;-72
2021/12/14 15:48:27;;;;;;;6.05;5.18;;;;;;;;;;4901714;29;20047;-71
2021/12/14 15:50:59;;;;;;;9.85;6.03;;;;;;;;;;4901569;29;20036;-70